sensor_id;sensor_type;location;lat;lon;timestamp;pressure;altitude;pressure_sealevel;temperature;humidity
66880;BME280;53789;51.392;10.234;2023-02-19T00:00:19;98190.25;;;7.05;96.65
66880;BME280;53789;51.392;10.234;2023-02-19T00:00:39;98186.69;;;7.05;96.46
66880;BME280;53789;51.392;10.234;2023-02-19T00:01:00;98193.78;;;7.06;97.29
66880;BME280;53789;51.392;10.234;2023-02-19T00:01:23;98184.50;;;7.07;96.75
66880;BME280;53789;51.392;10.234;2023-02-19T00:01:46;98197.03;;;7.08;97.18
66880;BME280;53789;51.392;10.234;2023-02-19T00:02:06;98192.41;;;7.08;97.26
66880;BME280;53789;51.392;10.234;2023-02-19T00:02:26;98190.47;;;7.09;96.91
66880;BME280;53789;51.392;10.234;2023-02-19T00:02:50;98186.66;;;7.10;96.49
66880;BME280;53789;51.392;10.234;2023-02-19T00:03:11;98185.53;;;7.11;95.93
66880;BME280;53789;51.392;10.234;2023-02-19T00:03:32;98187.19;;;7.12;96.14
66880;BME280;53789;51.392;10.234;2023-02-19T00:03:54;98185.25;;;7.13;96.18
66880;BME280;53789;51.392;10.234;2023-02-19T00:04:18;98188.81;;;7.13;95.60
66880;BME280;53789;51.392;10.234;2023-02-19T00:04:42;98184.16;;;7.14;95.94
66880;BME280;53789;51.392;10.234;2023-02-19T00:05:02;98185.81;;;7.15;95.90
66880;BME280;53789;51.392;10.234;2023-02-19T00:05:23;98184.72;;;7.16;95.78
66880;BME280;53789;51.392;10.234;2023-02-19T00:05:45;98181.97;;;7.16;95.62
66880;BME280;53789;51.392;10.234;2023-02-19T00:06:09;98178.13;;;7.17;96.71
66880;BME280;53789;51.392;10.234;2023-02-19T00:06:31;98181.69;;;7.17;96.37
66880;BME280;53789;51.392;10.234;2023-02-19T00:06:55;98183.28;;;7.18;95.98
66880;BME280;53789;51.392;10.234;2023-02-19T00:07:15;98176.72;;;7.19;96.37
66880;BME280;53789;51.392;10.234;2023-02-19T00:07:45;98179.47;;;7.19;96.15
66880;BME280;53789;51.392;10.234;2023-02-19T00:08:05;98172.06;;;7.20;95.74
66880;BME280;53789;51.392;10.234;2023-02-19T00:08:25;98174.81;;;7.20;95.41
66880;BME280;53789;51.392;10.234;2023-02-19T00:08:47;98176.44;;;7.21;96.49
66880;BME280;53789;51.392;10.234;2023-02-19T00:09:10;98169.88;;;7.22;96.51
66880;BME280;53789;51.392;10.234;2023-02-19T00:09:30;98175.34;;;7.22;96.18
66880;BME280;53789;51.392;10.234;2023-02-19T00:09:53;98170.97;;;7.21;95.77
66880;BME280;53789;51.392;10.234;2023-02-19T00:10:14;98173.72;;;7.21;95.69
66880;BME280;53789;51.392;10.234;2023-02-19T00:10:35;98161.97;;;7.20;95.60
66880;BME280;53789;51.392;10.234;2023-02-19T00:11:26;98167.16;;;7.22;95.84
66880;BME280;53789;51.392;10.234;2023-02-19T00:11:47;98163.56;;;7.21;95.42
66880;BME280;53789;51.392;10.234;2023-02-19T00:12:08;98158.94;;;7.22;96.01
66880;BME280;53789;51.392;10.234;2023-02-19T00:12:28;98159.75;;;7.22;95.99
66880;BME280;53789;51.392;10.234;2023-02-19T00:12:48;98170.41;;;7.24;96.68
66880;BME280;53789;51.392;10.234;2023-02-19T00:13:10;98164.13;;;7.23;96.62
66880;BME280;53789;51.392;10.234;2023-02-19T00:13:42;98163.00;;;7.24;95.26
66880;BME280;53789;51.392;10.234;2023-02-19T00:14:04;98158.38;;;7.25;95.37
66880;BME280;53789;51.392;10.234;2023-02-19T00:14:25;98157.53;;;7.24;96.25
66880;BME280;53789;51.392;10.234;2023-02-19T00:14:45;98167.38;;;7.25;95.44
66880;BME280;53789;51.392;10.234;2023-02-19T00:15:06;98160.81;;;7.26;96.46
66880;BME280;53789;51.392;10.234;2023-02-19T00:15:27;98154.25;;;7.27;95.30
66880;BME280;53789;51.392;10.234;2023-02-19T00:15:47;98161.63;;;7.27;95.81
66880;BME280;53789;51.392;10.234;2023-02-19T00:16:13;98162.44;;;7.27;96.00
66880;BME280;53789;51.392;10.234;2023-02-19T00:16:36;98152.31;;;7.28;96.10
66880;BME280;53789;51.392;10.234;2023-02-19T00:16:57;98154.75;;;7.30;95.87
66880;BME280;53789;51.392;10.234;2023-02-19T00:17:17;98150.09;;;7.30;94.97
66880;BME280;53789;51.392;10.234;2023-02-19T00:17:38;98158.03;;;7.32;95.88
66880;BME280;53789;51.392;10.234;2023-02-19T00:17:58;98155.28;;;7.32;95.38
66880;BME280;53789;51.392;10.234;2023-02-19T00:18:18;98158.84;;;7.32;95.15
66880;BME280;53789;51.392;10.234;2023-02-19T00:18:39;98157.72;;;7.33;95.64
66880;BME280;53789;51.392;10.234;2023-02-19T00:19:01;98153.09;;;7.34;94.90
66880;BME280;53789;51.392;10.234;2023-02-19T00:19:22;98150.34;;;7.34;94.89
66880;BME280;53789;51.392;10.234;2023-02-19T00:19:42;98157.44;;;7.35;94.32
66880;BME280;53789;51.392;10.234;2023-02-19T00:20:02;98153.59;;;7.36;95.69
66880;BME280;53789;51.392;10.234;2023-02-19T00:20:23;98156.06;;;7.37;95.13
66880;BME280;53789;51.392;10.234;2023-02-19T00:20:43;98154.13;;;7.38;95.66
66880;BME280;53789;51.392;10.234;2023-02-19T00:21:03;98155.78;;;7.39;94.98
66880;BME280;53789;51.392;10.234;2023-02-19T00:21:25;98156.59;;;7.39;94.16
66880;BME280;53789;51.392;10.234;2023-02-19T00:21:49;98151.94;;;7.40;94.16
66880;BME280;53789;51.392;10.234;2023-02-19T00:22:10;98156.59;;;7.39;95.06
66880;BME280;53789;51.392;10.234;2023-02-19T00:22:31;98149.19;;;7.40;94.66
66880;BME280;53789;51.392;10.234;2023-02-19T00:22:51;98154.69;;;7.40;94.67
66880;BME280;53789;51.392;10.234;2023-02-19T00:23:12;98157.41;;;7.40;94.54
66880;BME280;53789;51.392;10.234;2023-02-19T00:23:33;98148.41;;;7.39;94.68
66880;BME280;53789;51.392;10.234;2023-02-19T00:23:57;98147.28;;;7.40;93.98
66880;BME280;53789;51.392;10.234;2023-02-19T00:24:21;98149.19;;;7.40;94.55
66880;BME280;53789;51.392;10.234;2023-02-19T00:24:41;98149.19;;;7.40;94.13
66880;BME280;53789;51.392;10.234;2023-02-19T00:25:02;98145.66;;;7.39;95.11
66880;BME280;53789;51.392;10.234;2023-02-19T00:25:22;98148.41;;;7.39;95.02
66880;BME280;53789;51.392;10.234;2023-02-19T00:25:43;98142.91;;;7.39;94.84
66880;BME280;53789;51.392;10.234;2023-02-19T00:26:04;98142.09;;;7.39;94.79
66880;BME280;53789;51.392;10.234;2023-02-19T00:26:26;98140.44;;;7.38;94.66
66880;BME280;53789;51.392;10.234;2023-02-19T00:26:47;98138.53;;;7.38;94.85
66880;BME280;53789;51.392;10.234;2023-02-19T00:27:08;98146.47;;;7.40;94.66
66880;BME280;53789;51.392;10.234;2023-02-19T00:27:32;98142.09;;;7.39;94.43
66880;BME280;53789;51.392;10.234;2023-02-19T00:27:52;98139.34;;;7.39;94.31
66880;BME280;53789;51.392;10.234;2023-02-19T00:28:17;98131.97;;;7.39;94.31
66880;BME280;53789;51.392;10.234;2023-02-19T00:28:38;98137.97;;;7.41;94.15
66880;BME280;53789;51.392;10.234;2023-02-19T00:29:00;98143.72;;;7.40;94.84
66880;BME280;53789;51.392;10.234;2023-02-19T00:29:20;98136.31;;;7.40;94.54
66880;BME280;53789;51.392;10.234;2023-02-19T00:29:41;98139.91;;;7.41;94.74
66880;BME280;53789;51.392;10.234;2023-02-19T00:30:01;98138.25;;;7.40;94.68
66880;BME280;53789;51.392;10.234;2023-02-19T00:30:22;98137.44;;;7.39;94.70
66880;BME280;53789;51.392;10.234;2023-02-19T00:30:43;98142.09;;;7.39;93.96
66880;BME280;53789;51.392;10.234;2023-02-19T00:31:08;98141.00;;;7.40;94.02
66880;BME280;53789;51.392;10.234;2023-02-19T00:31:33;98139.91;;;7.41;94.04
66880;BME280;53789;51.392;10.234;2023-02-19T00:31:54;98146.19;;;7.41;94.08
66880;BME280;53789;51.392;10.234;2023-02-19T00:32:14;98140.69;;;7.41;94.17
66880;BME280;53789;51.392;10.234;2023-02-19T00:32:35;98138.78;;;7.42;94.22
66880;BME280;53789;51.392;10.234;2023-02-19T00:32:55;98140.69;;;7.41;95.08
66880;BME280;53789;51.392;10.234;2023-02-19T00:33:15;98142.34;;;7.42;94.29
66880;BME280;53789;51.392;10.234;2023-02-19T00:33:36;98136.88;;;7.42;94.28
66880;BME280;53789;51.392;10.234;2023-02-19T00:33:58;98136.88;;;7.42;94.20
66880;BME280;53789;51.392;10.234;2023-02-19T00:34:19;98143.16;;;7.43;94.82
66880;BME280;53789;51.392;10.234;2023-02-19T00:34:39;98138.47;;;7.43;94.55
66880;BME280;53789;51.392;10.234;2023-02-19T00:35:00;98140.41;;;7.43;93.80
66880;BME280;53789;51.392;10.234;2023-02-19T00:35:21;98133.00;;;7.43;93.99
66880;BME280;53789;51.392;10.234;2023-02-19T00:35:41;98136.03;;;7.42;94.88
66880;BME280;53789;51.392;10.234;2023-02-19T00:36:04;98136.03;;;7.42;94.30
66880;BME280;53789;51.392;10.234;2023-02-19T00:36:28;98139.34;;;7.44;94.02
66880;BME280;53789;51.392;10.234;2023-02-19T00:36:48;98147.28;;;7.40;94.54
66880;BME280;53789;51.392;10.234;2023-02-19T00:37:09;98139.06;;;7.40;93.55
66880;BME280;53789;51.392;10.234;2023-02-19T00:37:30;98140.69;;;7.41;94.33
66880;BME280;53789;51.392;10.234;2023-02-19T00:37:50;98144.25;;;7.42;94.89
66880;BME280;53789;51.392;10.234;2023-02-19T00:38:10;98146.19;;;7.41;94.08
66880;BME280;53789;51.392;10.234;2023-02-19T00:38:34;98143.44;;;7.41;93.72
66880;BME280;53789;51.392;10.234;2023-02-19T00:38:55;98141.50;;;7.42;94.71
66880;BME280;53789;51.392;10.234;2023-02-19T00:39:16;98141.78;;;7.40;93.52
66880;BME280;53789;51.392;10.234;2023-02-19T00:39:36;98137.97;;;7.41;94.58
66880;BME280;53789;51.392;10.234;2023-02-19T00:39:56;98136.03;;;7.42;93.74
66880;BME280;53789;51.392;10.234;2023-02-19T00:40:17;98137.69;;;7.43;94.68
66880;BME280;53789;51.392;10.234;2023-02-19T00:40:37;98136.88;;;7.42;94.25
66880;BME280;53789;51.392;10.234;2023-02-19T00:40:58;98135.75;;;7.43;94.78
66880;BME280;53789;51.392;10.234;2023-02-19T00:41:20;98140.97;;;7.45;93.92
66880;BME280;53789;51.392;10.234;2023-02-19T00:41:41;98137.41;;;7.44;93.89
66880;BME280;53789;51.392;10.234;2023-02-19T00:42:01;98130.00;;;7.45;94.61
66880;BME280;53789;51.392;10.234;2023-02-19T00:42:21;98132.75;;;7.45;93.78
66880;BME280;53789;51.392;10.234;2023-02-19T00:42:41;98135.50;;;7.45;94.05
66880;BME280;53789;51.392;10.234;2023-02-19T00:43:02;98137.41;;;7.44;93.29
66880;BME280;53789;51.392;10.234;2023-02-19T00:43:22;98140.16;;;7.44;93.48
66880;BME280;53789;51.392;10.234;2023-02-19T00:43:42;98136.63;;;7.44;93.66
66880;BME280;53789;51.392;10.234;2023-02-19T00:44:05;98139.34;;;7.44;93.94
66880;BME280;53789;51.392;10.234;2023-02-19T00:44:26;98131.13;;;7.44;93.06
66880;BME280;53789;51.392;10.234;2023-02-19T00:44:46;98134.94;;;7.43;93.74
66880;BME280;53789;51.392;10.234;2023-02-19T00:45:07;98130.28;;;7.43;93.02
66880;BME280;53789;51.392;10.234;2023-02-19T00:45:27;98141.22;;;7.43;94.01
66880;BME280;53789;51.392;10.234;2023-02-19T00:45:48;98129.75;;;7.41;93.92
66880;BME280;53789;51.392;10.234;2023-02-19T00:46:08;98134.44;;;7.41;94.19
66880;BME280;53789;51.392;10.234;2023-02-19T00:46:35;98126.22;;;7.41;94.32
66880;BME280;53789;51.392;10.234;2023-02-19T00:46:55;98131.97;;;7.39;93.35
66880;BME280;53789;51.392;10.234;2023-02-19T00:47:16;98133.88;;;7.39;93.49
66880;BME280;53789;51.392;10.234;2023-02-19T00:47:36;98131.16;;;7.39;94.11
66880;BME280;53789;51.392;10.234;2023-02-19T00:47:56;98120.19;;;7.39;93.82
66880;BME280;53789;51.392;10.234;2023-02-19T00:48:16;98124.88;;;7.38;93.87
66880;BME280;53789;51.392;10.234;2023-02-19T00:48:37;98131.97;;;7.39;93.97
66880;BME280;53789;51.392;10.234;2023-02-19T00:48:58;98132.78;;;7.40;94.42
66880;BME280;53789;51.392;10.234;2023-02-19T00:49:21;98136.63;;;7.39;94.26
66880;BME280;53789;51.392;10.234;2023-02-19T00:49:41;98134.97;;;7.38;93.15
66880;BME280;53789;51.392;10.234;2023-02-19T00:50:01;98136.91;;;7.37;94.29
66880;BME280;53789;51.392;10.234;2023-02-19T00:50:22;98133.06;;;7.38;93.76
66880;BME280;53789;51.392;10.234;2023-02-19T00:50:42;98133.06;;;7.38;94.34
66880;BME280;53789;51.392;10.234;2023-02-19T00:51:03;98134.16;;;7.37;93.65
66880;BME280;53789;51.392;10.234;2023-02-19T00:51:26;98128.69;;;7.37;93.45
66880;BME280;53789;51.392;10.234;2023-02-19T00:51:48;98126.50;;;7.39;93.50
66880;BME280;53789;51.392;10.234;2023-02-19T00:52:09;98135.81;;;7.38;94.18
66880;BME280;53789;51.392;10.234;2023-02-19T00:52:29;98127.59;;;7.38;94.33
66880;BME280;53789;51.392;10.234;2023-02-19T00:52:49;98129.25;;;7.39;93.98
66880;BME280;53789;51.392;10.234;2023-02-19T00:53:10;98127.31;;;7.40;94.19
66880;BME280;53789;51.392;10.234;2023-02-19T00:53:30;98123.78;;;7.39;93.70
66880;BME280;53789;51.392;10.234;2023-02-19T00:53:50;98126.22;;;7.41;93.66
66880;BME280;53789;51.392;10.234;2023-02-19T00:54:11;98121.03;;;7.39;93.57
66880;BME280;53789;51.392;10.234;2023-02-19T00:54:32;98127.31;;;7.40;93.41
66880;BME280;53789;51.392;10.234;2023-02-19T00:54:52;98124.56;;;7.40;94.80
66880;BME280;53789;51.392;10.234;2023-02-19T00:55:12;98121.84;;;7.40;94.03
66880;BME280;53789;51.392;10.234;2023-02-19T00:55:33;98119.91;;;7.40;94.41
66880;BME280;53789;51.392;10.234;2023-02-19T00:55:53;98120.75;;;7.41;94.55
66880;BME280;53789;51.392;10.234;2023-02-19T00:56:13;98121.03;;;7.39;93.83
66880;BME280;53789;51.392;10.234;2023-02-19T00:56:34;98121.03;;;7.39;93.45
66880;BME280;53789;51.392;10.234;2023-02-19T00:56:54;98124.03;;;7.38;94.62
66880;BME280;53789;51.392;10.234;2023-02-19T00:57:14;98115.31;;;7.36;94.30
66880;BME280;53789;51.392;10.234;2023-02-19T00:57:35;98125.16;;;7.37;94.41
66880;BME280;53789;51.392;10.234;2023-02-19T00:57:55;98115.31;;;7.36;93.47
66880;BME280;53789;51.392;10.234;2023-02-19T00:58:15;98111.22;;;7.33;94.57
66880;BME280;53789;51.392;10.234;2023-02-19T00:58:35;98115.88;;;7.33;93.65
66880;BME280;53789;51.392;10.234;2023-02-19T00:58:56;98114.53;;;7.30;94.69
66880;BME280;53789;51.392;10.234;2023-02-19T00:59:17;98112.91;;;7.29;93.89
66880;BME280;53789;51.392;10.234;2023-02-19T00:59:37;98110.47;;;7.27;93.76
66880;BME280;53789;51.392;10.234;2023-02-19T00:59:57;98109.63;;;7.27;94.00
66880;BME280;53789;51.392;10.234;2023-02-19T01:00:17;98112.38;;;7.27;94.86
66880;BME280;53789;51.392;10.234;2023-02-19T01:00:38;98117.03;;;7.26;95.30
66880;BME280;53789;51.392;10.234;2023-02-19T01:00:58;98110.72;;;7.26;94.21
66880;BME280;53789;51.392;10.234;2023-02-19T01:01:19;98108.00;;;7.26;95.25
66880;BME280;53789;51.392;10.234;2023-02-19T01:01:39;98104.75;;;7.24;94.84
66880;BME280;53789;51.392;10.234;2023-02-19T01:02:00;98102.59;;;7.21;95.44
66880;BME280;53789;51.392;10.234;2023-02-19T01:02:20;98112.44;;;7.22;95.40
66880;BME280;53789;51.392;10.234;2023-02-19T01:02:41;98101.78;;;7.20;94.87
66880;BME280;53789;51.392;10.234;2023-02-19T01:03:01;98102.59;;;7.21;95.69
66880;BME280;53789;51.392;10.234;2023-02-19T01:03:21;98105.31;;;7.21;95.85
66880;BME280;53789;51.392;10.234;2023-02-19T01:03:42;98102.06;;;7.19;95.98
66880;BME280;53789;51.392;10.234;2023-02-19T01:04:02;98090.28;;;7.18;95.82
66880;BME280;53789;51.392;10.234;2023-02-19T01:04:23;98093.03;;;7.18;95.52
66880;BME280;53789;51.392;10.234;2023-02-19T01:04:43;98100.44;;;7.18;95.69
66880;BME280;53789;51.392;10.234;2023-02-19T01:05:03;98092.22;;;7.18;96.43
66880;BME280;53789;51.392;10.234;2023-02-19T01:05:24;98089.50;;;7.18;95.62
66880;BME280;53789;51.392;10.234;2023-02-19T01:05:44;98094.97;;;7.18;95.50
66880;BME280;53789;51.392;10.234;2023-02-19T01:06:08;98103.97;;;7.18;96.44
66880;BME280;53789;51.392;10.234;2023-02-19T01:06:28;98099.63;;;7.17;95.30
66880;BME280;53789;51.392;10.234;2023-02-19T01:06:49;98097.97;;;7.16;96.27
66880;BME280;53789;51.392;10.234;2023-02-19T01:07:09;98101.53;;;7.17;95.66
66880;BME280;53789;51.392;10.234;2023-02-19T01:07:29;98101.53;;;7.17;95.65
66880;BME280;53789;51.392;10.234;2023-02-19T01:07:50;98099.63;;;7.17;95.54
66880;BME280;53789;51.392;10.234;2023-02-19T01:08:10;98102.38;;;7.17;95.68
66880;BME280;53789;51.392;10.234;2023-02-19T01:08:31;98107.00;;;7.17;96.34
66880;BME280;53789;51.392;10.234;2023-02-19T01:08:52;98100.44;;;7.18;95.25
66880;BME280;53789;51.392;10.234;2023-02-19T01:09:12;98105.91;;;7.18;95.42
66880;BME280;53789;51.392;10.234;2023-02-19T01:09:32;98103.16;;;7.18;96.39
66880;BME280;53789;51.392;10.234;2023-02-19T01:09:52;98101.53;;;7.17;95.44
66880;BME280;53789;51.392;10.234;2023-02-19T01:10:13;98102.66;;;7.16;95.64
66880;BME280;53789;51.392;10.234;2023-02-19T01:10:33;98099.91;;;7.16;96.06
66880;BME280;53789;51.392;10.234;2023-02-19T01:10:53;98094.44;;;7.16;96.03
66880;BME280;53789;51.392;10.234;2023-02-19T01:11:15;98101.81;;;7.15;97.04
66880;BME280;53789;51.392;10.234;2023-02-19T01:11:35;98102.66;;;7.16;96.78
66880;BME280;53789;51.392;10.234;2023-02-19T01:11:56;98099.06;;;7.15;96.29
66880;BME280;53789;51.392;10.234;2023-02-19T01:12:16;98103.75;;;7.15;96.23
66880;BME280;53789;51.392;10.234;2023-02-19T01:12:36;98103.75;;;7.15;95.83
66880;BME280;53789;51.392;10.234;2023-02-19T01:12:57;98097.44;;;7.14;96.21
66880;BME280;53789;51.392;10.234;2023-02-19T01:13:17;98104.03;;;7.13;95.97
66880;BME280;53789;51.392;10.234;2023-02-19T01:13:38;98093.09;;;7.13;96.54
66880;BME280;53789;51.392;10.234;2023-02-19T01:14:00;98093.91;;;7.14;97.13
66880;BME280;53789;51.392;10.234;2023-02-19T01:14:20;98095.28;;;7.11;97.07
66880;BME280;53789;51.392;10.234;2023-02-19T01:14:40;98096.91;;;7.12;96.62
66880;BME280;53789;51.392;10.234;2023-02-19T01:15:01;98095.00;;;7.13;96.70
66880;BME280;53789;51.392;10.234;2023-02-19T01:15:21;98089.81;;;7.11;96.34
66880;BME280;53789;51.392;10.234;2023-02-19T01:15:41;98090.66;;;7.12;96.38
66880;BME280;53789;51.392;10.234;2023-02-19T01:16:09;98085.97;;;7.12;97.58
66880;BME280;53789;51.392;10.234;2023-02-19T01:16:31;98091.44;;;7.12;96.29
66880;BME280;53789;51.392;10.234;2023-02-19T01:16:51;98091.44;;;7.12;97.36
66880;BME280;53789;51.392;10.234;2023-02-19T01:17:11;98095.81;;;7.13;96.69
66880;BME280;53789;51.392;10.234;2023-02-19T01:17:34;98086.78;;;7.13;97.10
66880;BME280;53789;51.392;10.234;2023-02-19T01:17:54;98084.88;;;7.13;96.66
66880;BME280;53789;51.392;10.234;2023-02-19T01:18:15;98080.22;;;7.14;96.25
66880;BME280;53789;51.392;10.234;2023-02-19T01:18:35;98081.03;;;7.14;97.75
66880;BME280;53789;51.392;10.234;2023-02-19T01:18:56;98079.13;;;7.15;96.48
66880;BME280;53789;51.392;10.234;2023-02-19T01:19:17;98080.78;;;7.16;96.80
66880;BME280;53789;51.392;10.234;2023-02-19T01:19:37;98078.03;;;7.16;96.41
66880;BME280;53789;51.392;10.234;2023-02-19T01:19:57;98081.56;;;7.16;96.52
66880;BME280;53789;51.392;10.234;2023-02-19T01:20:17;98085.13;;;7.17;96.35
66880;BME280;53789;51.392;10.234;2023-02-19T01:20:40;98084.31;;;7.16;97.17
66880;BME280;53789;51.392;10.234;2023-02-19T01:21:11;98088.13;;;7.15;96.46
66880;BME280;53789;51.392;10.234;2023-02-19T01:21:31;98086.25;;;7.16;96.65
66880;BME280;53789;51.392;10.234;2023-02-19T01:21:52;98084.31;;;7.16;96.49
66880;BME280;53789;51.392;10.234;2023-02-19T01:22:12;98083.50;;;7.16;97.36
66880;BME280;53789;51.392;10.234;2023-02-19T01:22:32;98085.13;;;7.17;97.47
66880;BME280;53789;51.392;10.234;2023-02-19T01:22:52;98078.03;;;7.16;96.66
66880;BME280;53789;51.392;10.234;2023-02-19T01:23:13;98081.56;;;7.16;96.95
66880;BME280;53789;51.392;10.234;2023-02-19T01:23:34;98082.38;;;7.17;96.59
66880;BME280;53789;51.392;10.234;2023-02-19T01:23:58;98085.94;;;7.17;97.12
66880;BME280;53789;51.392;10.234;2023-02-19T01:24:18;98082.09;;;7.18;97.66
66880;BME280;53789;51.392;10.234;2023-02-19T01:24:38;98082.09;;;7.18;97.58
66880;BME280;53789;51.392;10.234;2023-02-19T01:24:59;98084.81;;;7.18;96.70
66880;BME280;53789;51.392;10.234;2023-02-19T01:25:19;98084.03;;;7.18;97.64
66880;BME280;53789;51.392;10.234;2023-02-19T01:25:40;98077.44;;;7.19;96.69
66880;BME280;53789;51.392;10.234;2023-02-19T01:26:11;98086.47;;;7.19;97.10
66880;BME280;53789;51.392;10.234;2023-02-19T01:26:32;98078.25;;;7.19;97.24
66880;BME280;53789;51.392;10.234;2023-02-19T01:26:52;98078.25;;;7.19;97.58
66880;BME280;53789;51.392;10.234;2023-02-19T01:27:12;98077.97;;;7.21;96.65
66880;BME280;53789;51.392;10.234;2023-02-19T01:27:33;98072.50;;;7.21;96.84
66880;BME280;53789;51.392;10.234;2023-02-19T01:27:53;98071.69;;;7.20;96.76
66880;BME280;53789;51.392;10.234;2023-02-19T01:28:13;98068.66;;;7.22;97.71
66880;BME280;53789;51.392;10.234;2023-02-19T01:28:34;98067.03;;;7.21;96.72
66880;BME280;53789;51.392;10.234;2023-02-19T01:28:54;98070.56;;;7.21;97.02
66880;BME280;53789;51.392;10.234;2023-02-19T01:29:15;98065.09;;;7.21;97.03
66880;BME280;53789;51.392;10.234;2023-02-19T01:29:35;98071.41;;;7.22;96.63
66880;BME280;53789;51.392;10.234;2023-02-19T01:29:55;98062.06;;;7.23;97.77
66880;BME280;53789;51.392;10.234;2023-02-19T01:30:16;98060.47;;;7.22;96.69
66880;BME280;53789;51.392;10.234;2023-02-19T01:30:37;98056.59;;;7.23;96.75
66880;BME280;53789;51.392;10.234;2023-02-19T01:31:02;98056.59;;;7.23;97.08
66880;BME280;53789;51.392;10.234;2023-02-19T01:31:24;98064.81;;;7.23;97.07
66880;BME280;53789;51.392;10.234;2023-02-19T01:31:44;98060.97;;;7.24;97.47
66880;BME280;53789;51.392;10.234;2023-02-19T01:32:04;98062.91;;;7.23;96.95
66880;BME280;53789;51.392;10.234;2023-02-19T01:32:25;98067.53;;;7.23;97.35
66880;BME280;53789;51.392;10.234;2023-02-19T01:32:45;98062.06;;;7.23;96.76
66880;BME280;53789;51.392;10.234;2023-02-19T01:33:07;98057.44;;;7.23;96.29
66880;BME280;53789;51.392;10.234;2023-02-19T01:33:27;98054.16;;;7.21;96.29
66880;BME280;53789;51.392;10.234;2023-02-19T01:33:51;98058.25;;;7.24;97.57
66880;BME280;53789;51.392;10.234;2023-02-19T01:34:12;98056.31;;;7.24;97.25
66880;BME280;53789;51.392;10.234;2023-02-19T01:34:32;98059.03;;;7.24;97.12
66880;BME280;53789;51.392;10.234;2023-02-19T01:34:52;98057.44;;;7.23;96.46
66880;BME280;53789;51.392;10.234;2023-02-19T01:35:13;98057.44;;;7.23;96.32
66880;BME280;53789;51.392;10.234;2023-02-19T01:35:37;98062.06;;;7.23;96.25
66880;BME280;53789;51.392;10.234;2023-02-19T01:35:58;98060.47;;;7.22;96.54
66880;BME280;53789;51.392;10.234;2023-02-19T01:36:19;98054.69;;;7.23;96.19
66880;BME280;53789;51.392;10.234;2023-02-19T01:36:40;98044.03;;;7.22;96.97
66880;BME280;53789;51.392;10.234;2023-02-19T01:37:00;98049.53;;;7.22;96.75
66880;BME280;53789;51.392;10.234;2023-02-19T01:37:20;98050.31;;;7.22;96.43
66880;BME280;53789;51.392;10.234;2023-02-19T01:37:41;98054.16;;;7.21;97.23
66880;BME280;53789;51.392;10.234;2023-02-19T01:38:01;98040.75;;;7.20;97.13
66880;BME280;53789;51.392;10.234;2023-02-19T01:38:21;98045.16;;;7.21;96.93
66880;BME280;53789;51.392;10.234;2023-02-19T01:38:42;98041.59;;;7.20;96.89
66880;BME280;53789;51.392;10.234;2023-02-19T01:39:05;98044.03;;;7.22;96.30
66880;BME280;53789;51.392;10.234;2023-02-19T01:39:25;98044.03;;;7.22;96.61
66880;BME280;53789;51.392;10.234;2023-02-19T01:39:46;98044.84;;;7.22;96.83
66880;BME280;53789;51.392;10.234;2023-02-19T01:40:07;98044.84;;;7.22;96.04
66880;BME280;53789;51.392;10.234;2023-02-19T01:40:27;98045.94;;;7.21;96.89
66880;BME280;53789;51.392;10.234;2023-02-19T01:40:59;98043.22;;;7.21;96.63
66880;BME280;53789;51.392;10.234;2023-02-19T01:41:23;98045.94;;;7.21;96.17
66880;BME280;53789;51.392;10.234;2023-02-19T01:41:43;98036.94;;;7.21;96.57
66880;BME280;53789;51.392;10.234;2023-02-19T01:42:13;98036.94;;;7.21;97.15
66880;BME280;53789;51.392;10.234;2023-02-19T01:42:34;98040.19;;;7.23;95.91
66880;BME280;53789;51.392;10.234;2023-02-19T01:42:54;98042.13;;;7.22;96.31
66880;BME280;53789;51.392;10.234;2023-02-19T01:43:15;98033.41;;;7.20;96.49
66880;BME280;53789;51.392;10.234;2023-02-19T01:45:31;98036.34;;;7.24;95.80
66880;BME280;53789;51.392;10.234;2023-02-19T01:45:52;98041.03;;;7.23;96.07
66880;BME280;53789;51.392;10.234;2023-02-19T01:46:12;98035.56;;;7.23;96.54
66880;BME280;53789;51.392;10.234;2023-02-19T01:46:35;98032.81;;;7.23;95.88
66880;BME280;53789;51.392;10.234;2023-02-19T01:46:55;98036.06;;;7.25;96.85
66880;BME280;53789;51.392;10.234;2023-02-19T01:47:18;98029.50;;;7.26;96.28
66880;BME280;53789;51.392;10.234;2023-02-19T01:47:39;98034.13;;;7.26;96.11
66880;BME280;53789;51.392;10.234;2023-02-19T01:48:09;98035.78;;;7.27;96.45
66880;BME280;53789;51.392;10.234;2023-02-19T01:48:36;98031.41;;;7.26;96.88
66880;BME280;53789;51.392;10.234;2023-02-19T01:49:06;98020.75;;;7.24;95.96
66880;BME280;53789;51.392;10.234;2023-02-19T01:49:36;98033.31;;;7.25;95.78
66880;BME280;53789;51.392;10.234;2023-02-19T01:49:57;98026.22;;;7.24;95.13
66880;BME280;53789;51.392;10.234;2023-02-19T01:50:18;98034.13;;;7.26;95.92
66880;BME280;53789;51.392;10.234;2023-02-19T01:50:45;98025.13;;;7.25;95.46
66880;BME280;53789;51.392;10.234;2023-02-19T01:51:13;98034.97;;;7.26;95.60
66880;BME280;53789;51.392;10.234;2023-02-19T01:51:41;98029.50;;;7.26;95.52
66880;BME280;53789;51.392;10.234;2023-02-19T01:52:10;98025.94;;;7.26;95.21
66880;BME280;53789;51.392;10.234;2023-02-19T01:52:35;98025.41;;;7.24;95.62
66880;BME280;53789;51.392;10.234;2023-02-19T01:52:56;98034.44;;;7.24;94.92
66880;BME280;53789;51.392;10.234;2023-02-19T01:53:21;98038.50;;;7.27;95.94
66880;BME280;53789;51.392;10.234;2023-02-19T01:53:46;98031.13;;;7.27;95.26
66880;BME280;53789;51.392;10.234;2023-02-19T01:54:12;98032.75;;;7.29;95.47
66880;BME280;53789;51.392;10.234;2023-02-19T01:54:39;98043.19;;;7.26;95.09
66880;BME280;53789;51.392;10.234;2023-02-19T01:55:04;98036.88;;;7.26;95.04
66880;BME280;53789;51.392;10.234;2023-02-19T01:55:26;98022.38;;;7.25;95.71
66880;BME280;53789;51.392;10.234;2023-02-19T01:55:50;98025.66;;;7.27;95.63
66880;BME280;53789;51.392;10.234;2023-02-19T01:56:16;98014.72;;;7.27;95.47